Time;durP1;ratioP1;P1;durP2;ratioP2;P2;SDS_P1;SDS_P2;PMS_P1;PMS_P2;Temp;Humidity;BMP_temperature;BMP_pressure;BME280_temperature;BME280_humidity;BME280_pressure;Samples;Min_cycle;Max_cycle;Signal;HPM_P1;HPM_P2
2022/06/15 00:00:44;;;;;;;0.00;0.00;;;;;;;13.00;80.60;100846.53;5073588;28;20189;-72
2022/06/15 00:03:12;;;;;;;0.00;0.00;;;;;;;12.99;80.15;100844.09;5073549;28;20178;-72
2022/06/15 00:05:38;;;;;;;0.00;0.00;;;;;;;12.92;80.10;100832.78;5073526;28;20209;-72
2022/06/15 00:08:04;;;;;;;0.00;0.00;;;;;;;12.86;80.71;100834.03;5071898;28;20183;-73
2022/06/15 00:10:29;;;;;;;0.00;0.00;;;;;;;12.82;81.34;100837.44;5073403;28;20174;-72
2022/06/15 00:12:55;;;;;;;0.00;0.00;;;;;;;12.77;81.24;100831.28;5073454;28;20333;-73
2022/06/15 00:15:20;;;;;;;0.00;0.00;;;;;;;12.74;81.47;100845.63;5073233;28;20235;-73
2022/06/15 00:17:46;;;;;;;0.00;0.00;;;;;;;12.67;81.49;100837.03;5072769;28;20178;-72
2022/06/15 00:20:11;;;;;;;0.00;0.00;;;;;;;12.61;81.62;100819.13;5073308;28;20201;-73
2022/06/15 00:22:38;;;;;;;0.00;0.00;;;;;;;12.54;81.45;100832.47;5073192;28;20186;-72
2022/06/15 00:25:03;;;;;;;0.00;0.00;;;;;;;12.47;81.86;100831.00;5073098;28;20181;-72
2022/06/15 00:27:29;;;;;;;0.00;0.00;;;;;;;12.42;81.94;100833.03;5072722;28;20171;-73
2022/06/15 00:29:54;;;;;;;0.00;0.00;;;;;;;12.31;82.54;100828.97;5073332;28;20220;-72
2022/06/15 00:32:19;;;;;;;0.43;0.43;;;;;;;12.19;82.58;100821.31;5073222;28;20178;-73
2022/06/15 00:34:45;;;;;;;0.00;0.00;;;;;;;12.16;83.27;100824.69;5072937;28;20820;-73
2022/06/15 00:37:10;;;;;;;0.00;0.00;;;;;;;12.10;84.44;100823.19;5071325;28;20271;-72
2022/06/15 00:39:35;;;;;;;0.00;0.00;;;;;;;12.11;84.72;100827.53;5072543;28;20185;-73
2022/06/15 00:42:02;;;;;;;0.00;0.00;;;;;;;12.11;84.68;100833.00;5072850;28;20630;-72
2022/06/15 00:44:34;;;;;;;0.00;0.00;;;;;;;12.08;84.38;100822.69;5072953;28;20205;-72
2022/06/15 00:47:07;;;;;;;0.00;0.00;;;;;;;12.06;84.52;100816.72;5072529;28;20479;-72
2022/06/15 00:49:48;;;;;;;0.00;0.00;;;;;;;12.02;85.01;100816.53;5072365;28;20590;-72
2022/06/15 00:52:53;;;;;;;0.00;0.00;;;;;;;11.90;84.93;100810.81;5072786;28;20179;-73
2022/06/15 00:55:22;;;;;;;0.00;0.00;;;;;;;11.87;85.54;100805.97;5072490;28;20206;-72
2022/06/15 00:57:48;;;;;;;0.00;0.00;;;;;;;11.86;86.12;100812.53;5071985;28;20178;-73
2022/06/15 01:00:14;;;;;;;0.00;0.00;;;;;;;11.89;86.52;100800.97;5072565;28;20533;-72
2022/06/15 01:02:41;;;;;;;0.00;0.00;;;;;;;11.92;86.93;100794.88;5072561;28;20677;-73
2022/06/15 01:05:15;;;;;;;0.00;0.00;;;;;;;11.97;86.40;100799.41;5072195;28;20178;-74
2022/06/15 01:08:08;;;;;;;0.00;0.00;;;;;;;12.02;86.34;100793.81;5070742;28;20170;-72
2022/06/15 01:11:02;;;;;;;0.00;0.00;;;;;;;12.01;85.76;100784.81;5072457;28;20560;-73
2022/06/15 01:14:07;;;;;;;0.00;0.00;;;;;;;12.00;85.67;100793.31;5072448;28;20229;-73
2022/06/15 01:16:40;;;;;;;0.00;0.00;;;;;;;11.86;86.42;100798.84;5062931;28;20241;-73
2022/06/15 01:19:17;;;;;;;0.00;0.00;;;;;;;11.70;87.07;100800.31;5071690;28;20183;-72
2022/06/15 01:22:03;;;;;;;0.00;0.00;;;;;;;11.38;88.41;100798.59;5072378;28;20638;-73
2022/06/15 01:24:37;;;;;;;0.00;0.00;;;;;;;11.39;89.29;100792.81;5072095;28;20174;-72
2022/06/15 01:27:24;;;;;;;0.00;0.00;;;;;;;11.64;88.54;100805.09;5071685;28;20182;-73
2022/06/15 01:30:40;;;;;;;0.43;0.43;;;;;;;11.68;86.70;100803.34;5071670;28;20185;-72
2022/06/15 01:33:34;;;;;;;0.00;0.00;;;;;;;11.61;85.95;100803.78;5009521;28;20176;-73
2022/06/15 01:36:18;;;;;;;0.10;0.10;;;;;;;11.53;86.08;100807.25;5009574;28;20295;-72
2022/06/15 01:39:12;;;;;;;0.00;0.00;;;;;;;11.44;86.28;100803.66;5057753;28;20268;-72
2022/06/15 01:42:00;;;;;;;0.20;0.20;;;;;;;11.33;87.14;100794.84;5071950;28;20178;-73
2022/06/15 01:44:31;;;;;;;0.00;0.00;;;;;;;11.31;88.04;100805.31;5071962;28;20184;-72
2022/06/15 01:47:01;;;;;;;0.20;0.20;;;;;;;11.27;88.54;100798.81;5070890;28;20186;-72
2022/06/15 01:49:36;;;;;;;0.00;0.00;;;;;;;11.17;89.43;100799.03;5069825;28;20539;-72
2022/06/15 01:52:04;;;;;;;0.00;0.00;;;;;;;11.13;89.39;100800.75;5071598;28;20261;-73
2022/06/15 01:54:40;;;;;;;0.00;0.00;;;;;;;11.11;89.97;100815.84;5071316;28;20259;-73
2022/06/15 01:57:07;;;;;;;0.00;0.00;;;;;;;11.00;89.74;100805.16;5071130;28;20174;-73
2022/06/15 01:59:49;;;;;;;0.00;0.00;;;;;;;10.82;90.31;100811.50;5071021;28;20304;-73
2022/06/15 02:02:17;;;;;;;0.00;0.00;;;;;;;10.72;91.40;100812.53;5071321;28;20602;-72
2022/06/15 02:04:54;;;;;;;0.00;0.00;;;;;;;10.51;92.03;100808.56;5071266;28;20193;-71
2022/06/15 02:07:25;;;;;;;0.00;0.00;;;;;;;10.36;93.03;100800.66;5070245;28;20201;-73
2022/06/15 02:10:16;;;;;;;0.00;0.00;;;;;;;10.37;94.53;100796.81;5071261;28;20179;-72
2022/06/15 02:13:04;;;;;;;0.00;0.00;;;;;;;10.40;95.50;100797.00;5071161;28;20183;-72
2022/06/15 02:15:30;;;;;;;0.00;0.00;;;;;;;10.47;96.25;100791.16;5071039;28;20305;-73
2022/06/15 02:18:00;;;;;;;0.00;0.00;;;;;;;10.56;96.67;100800.28;5070395;28;20689;-72
2022/06/15 02:20:30;;;;;;;0.00;0.00;;;;;;;10.59;96.59;100796.94;5071008;28;20202;-73
2022/06/15 02:23:00;;;;;;;0.00;0.00;;;;;;;10.59;95.78;100796.13;5071469;28;20167;-74
2022/06/15 02:25:31;;;;;;;0.00;0.00;;;;;;;10.56;94.81;100783.91;5070813;28;20179;-73
2022/06/15 02:27:56;;;;;;;0.00;0.00;;;;;;;10.55;93.87;100784.19;5070279;28;20280;-72
2022/06/15 02:30:24;;;;;;;0.00;0.00;;;;;;;10.53;94.00;100770.00;5070905;28;20239;-73
2022/06/15 02:32:51;;;;;;;0.00;0.00;;;;;;;10.57;94.10;100768.31;5070651;28;20643;-72
2022/06/15 02:35:18;;;;;;;0.00;0.00;;;;;;;10.60;94.96;100771.25;5070560;28;20205;-73
2022/06/15 02:37:44;;;;;;;0.00;0.00;;;;;;;10.62;94.80;100774.47;5070088;28;20538;-72
2022/06/15 02:40:13;;;;;;;0.00;0.00;;;;;;;10.66;95.12;100774.66;5070602;28;20190;-73
2022/06/15 02:42:40;;;;;;;0.00;0.00;;;;;;;10.68;95.47;100778.72;5070708;28;20707;-72
2022/06/15 02:45:10;;;;;;;0.00;0.00;;;;;;;10.76;96.07;100777.22;5070506;28;20198;-72
2022/06/15 02:47:40;;;;;;;0.00;0.00;;;;;;;10.82;94.83;100788.84;5070223;28;20186;-73
2022/06/15 02:50:09;;;;;;;0.00;0.00;;;;;;;10.60;93.55;100787.63;5070664;28;20163;-73
2022/06/15 02:52:40;;;;;;;0.00;0.00;;;;;;;10.38;94.02;100771.13;5070348;28;20170;-73
2022/06/15 02:55:09;;;;;;;0.00;0.00;;;;;;;10.34;94.89;100772.84;5070604;28;20449;-73
2022/06/15 02:57:51;;;;;;;0.00;0.00;;;;;;;10.34;96.07;100779.09;5069826;28;20259;-72
2022/06/15 03:00:20;;;;;;;0.00;0.00;;;;;;;10.22;95.92;100770.59;5069622;28;20208;-72
2022/06/15 03:02:46;;;;;;;0.00;0.00;;;;;;;10.26;96.15;100778.97;5070350;28;20231;-72
2022/06/15 03:05:12;;;;;;;0.00;0.00;;;;;;;10.21;96.76;100771.69;5070205;28;20262;-72
2022/06/15 03:07:37;;;;;;;0.00;0.00;;;;;;;10.08;96.97;100767.78;5068948;28;20171;-73
2022/06/15 03:10:03;;;;;;;0.00;0.00;;;;;;;9.96;96.97;100777.56;5070378;28;20238;-72
2022/06/15 03:12:28;;;;;;;0.00;0.00;;;;;;;9.81;97.51;100763.06;5070292;28;20239;-72
2022/06/15 03:14:53;;;;;;;0.00;0.00;;;;;;;9.77;98.86;100772.16;5070105;28;20759;-73
2022/06/15 03:17:19;;;;;;;0.00;0.00;;;;;;;9.67;100.00;100780.50;5069947;28;20179;-72
2022/06/15 03:19:44;;;;;;;0.00;0.00;;;;;;;9.61;100.00;100776.25;5069940;28;20246;-72
2022/06/15 03:22:10;;;;;;;0.00;0.00;;;;;;;9.63;100.00;100772.09;5070244;28;20177;-72
2022/06/15 03:24:35;;;;;;;0.00;0.00;;;;;;;9.66;100.00;100762.50;5070209;28;20208;-73
2022/06/15 03:27:00;;;;;;;0.53;0.53;;;;;;;9.66;100.00;100771.50;5069863;28;20634;-72
2022/06/15 03:29:26;;;;;;;0.00;0.00;;;;;;;9.49;100.00;100772.03;5069722;28;20174;-72
2022/06/15 03:31:51;;;;;;;0.00;0.00;;;;;;;9.50;100.00;100776.38;5070019;28;20253;-72
2022/06/15 03:34:16;;;;;;;0.00;0.00;;;;;;;9.46;100.00;100771.81;5069962;28;20178;-73
2022/06/15 03:36:42;;;;;;;0.00;0.00;;;;;;;9.46;100.00;100764.47;5069767;28;20540;-73
2022/06/15 03:39:07;;;;;;;0.00;0.00;;;;;;;9.52;100.00;100767.91;5069605;28;20171;-72
2022/06/15 03:41:33;;;;;;;0.00;0.00;;;;;;;9.56;100.00;100773.59;5070056;28;20198;-72
2022/06/15 03:43:58;;;;;;;0.00;0.00;;;;;;;9.67;100.00;100775.84;5070014;28;20531;-72
2022/06/15 03:46:24;;;;;;;0.00;0.00;;;;;;;9.81;100.00;100768.53;5069707;28;20178;-73
2022/06/15 03:48:49;;;;;;;0.00;0.00;;;;;;;9.85;100.00;100774.22;5069370;28;20166;-72
2022/06/15 03:51:15;;;;;;;0.00;0.00;;;;;;;9.90;100.00;100771.41;5069787;28;20662;-73
2022/06/15 03:53:40;;;;;;;0.00;0.00;;;;;;;10.00;100.00;100771.22;5069913;28;20181;-72
2022/06/15 03:56:06;;;;;;;0.00;0.00;;;;;;;10.12;100.00;100768.00;5069868;28;20284;-72
2022/06/15 03:58:31;;;;;;;2.63;2.53;;;;;;;10.23;100.00;100774.94;5069133;28;20507;-73
2022/06/15 04:00:57;;;;;;;0.00;0.00;;;;;;;10.29;100.00;100771.03;5069719;28;20273;-72
2022/06/15 04:03:22;;;;;;;0.93;0.93;;;;;;;10.25;100.00;100767.25;5069742;28;20174;-72
2022/06/15 04:05:53;;;;;;;0.20;0.20;;;;;;;10.26;100.00;100768.06;5069920;28;20178;-73
2022/06/15 04:08:35;;;;;;;0.00;0.00;;;;;;;10.33;100.00;100771.22;5068340;28;20517;-72
2022/06/15 04:11:06;;;;;;;0.00;0.00;;;;;;;10.48;100.00;100762.72;5071605;28;20173;-72
2022/06/15 04:13:32;;;;;;;0.00;0.00;;;;;;;10.57;100.00;100777.31;5073469;28;20316;-73
2022/06/15 04:15:57;;;;;;;0.00;0.00;;;;;;;10.68;99.07;100769.72;5073436;28;20292;-72
2022/06/15 04:18:22;;;;;;;0.00;0.00;;;;;;;10.83;98.79;100779.53;5072912;28;20167;-72
2022/06/15 04:20:48;;;;;;;0.00;0.00;;;;;;;10.76;98.49;100768.22;5073362;28;20174;-73
2022/06/15 04:23:17;;;;;;;0.00;0.00;;;;;;;10.56;98.24;100763.94;5073278;28;20620;-73
2022/06/15 04:25:52;;;;;;;0.00;0.00;;;;;;;10.69;98.86;100776.78;5073449;28;20294;-72
2022/06/15 04:28:21;;;;;;;0.00;0.00;;;;;;;10.94;97.71;100778.19;5072597;28;20637;-72
2022/06/15 04:30:46;;;;;;;0.00;0.00;;;;;;;10.88;96.19;100774.78;5072953;28;20172;-74
2022/06/15 04:33:12;;;;;;;0.00;0.00;;;;;;;10.94;96.17;100775.47;5073075;28;20186;-73
2022/06/15 04:35:38;;;;;;;0.00;0.00;;;;;;;11.14;96.69;100777.78;5072879;28;20610;-72
2022/06/15 04:38:04;;;;;;;0.00;0.00;;;;;;;10.93;95.54;100771.13;5072948;28;20703;-73
2022/06/15 04:40:31;;;;;;;0.00;0.00;;;;;;;10.84;95.91;100776.47;5073479;28;20184;-73
2022/06/15 04:42:57;;;;;;;0.00;0.00;;;;;;;10.79;95.64;100775.78;5072948;28;20178;-73
2022/06/15 04:45:22;;;;;;;0.00;0.00;;;;;;;10.91;96.14;100787.03;5072858;28;20645;-74
2022/06/15 04:47:48;;;;;;;0.00;0.00;;;;;;;11.13;96.13;100786.28;5072063;28;20262;-72
2022/06/15 04:50:14;;;;;;;0.00;0.00;;;;;;;11.24;95.22;100779.47;5073153;28;20228;-73
2022/06/15 04:52:41;;;;;;;0.00;0.00;;;;;;;11.41;94.24;100781.56;5072749;28;20175;-72
2022/06/15 04:55:09;;;;;;;0.00;0.00;;;;;;;11.52;92.88;100772.81;5072588;28;20605;-72
2022/06/15 04:57:35;;;;;;;0.00;0.00;;;;;;;11.44;93.57;100779.03;5072009;28;20639;-72
2022/06/15 05:00:00;;;;;;;0.00;0.00;;;;;;;11.48;93.07;100779.22;5072590;28;20214;-73
2022/06/15 05:02:25;;;;;;;0.00;0.00;;;;;;;11.53;93.43;100782.63;5072569;28;20249;-72
2022/06/15 05:04:50;;;;;;;0.33;0.17;;;;;;;11.55;93.59;100777.66;5072386;28;20202;-74
2022/06/15 05:07:16;;;;;;;0.00;0.00;;;;;;;11.47;92.54;100783.06;5071316;28;20179;-73
2022/06/15 05:09:47;;;;;;;0.00;0.00;;;;;;;11.62;93.22;100782.72;5072354;28;20181;-73
2022/06/15 05:12:12;;;;;;;0.00;0.00;;;;;;;11.69;92.19;100791.28;5071053;28;20508;-73
2022/06/15 05:14:37;;;;;;;0.07;0.07;;;;;;;11.65;91.22;100779.34;5072134;28;20281;-74
2022/06/15 05:17:03;;;;;;;0.00;0.00;;;;;;;11.84;91.49;100785.47;5071868;28;20216;-72
2022/06/15 05:19:29;;;;;;;0.00;0.00;;;;;;;11.85;89.73;100789.81;5071760;28;20526;-73
2022/06/15 05:21:54;;;;;;;0.00;0.00;;;;;;;11.99;89.02;100788.94;5071425;28;20171;-72
2022/06/15 05:24:19;;;;;;;0.00;0.00;;;;;;;11.99;88.72;100781.53;5072157;28;20593;-73
2022/06/15 05:26:44;;;;;;;0.00;0.00;;;;;;;12.05;88.21;100784.97;5071757;28;20513;-72
2022/06/15 05:29:10;;;;;;;0.00;0.00;;;;;;;12.18;87.84;100786.84;5072066;28;20190;-72
2022/06/15 05:31:35;;;;;;;0.00;0.00;;;;;;;12.24;87.39;100780.09;5072002;28;20166;-72
2022/06/15 05:34:00;;;;;;;0.20;0.20;;;;;;;12.42;88.97;100786.47;5071808;28;20266;-73
2022/06/15 05:36:31;;;;;;;0.00;0.00;;;;;;;12.40;87.67;100783.22;5071708;28;20329;-73
2022/06/15 05:38:57;;;;;;;0.00;0.00;;;;;;;12.41;87.65;100782.09;5071613;28;20223;-72
2022/06/15 05:41:23;;;;;;;0.00;0.00;;;;;;;12.51;87.91;100798.28;5071769;28;20532;-73
2022/06/15 05:46:32;;;;;;;0.00;0.00;;;;;;;12.73;87.70;100792.75;5071519;28;20265;-72
2022/06/15 05:48:59;;;;;;;0.00;0.00;;;;;;;12.74;86.77;100794.34;5071433;28;20183;-73
2022/06/15 05:51:25;;;;;;;0.00;0.00;;;;;;;12.81;85.58;100793.88;5071512;28;20630;-72
2022/06/15 05:53:50;;;;;;;0.00;0.00;;;;;;;12.78;84.21;100789.03;5071606;28;20179;-73
2022/06/15 05:56:16;;;;;;;0.00;0.00;;;;;;;12.97;85.05;100791.50;5071308;28;20206;-74
2022/06/15 05:58:42;;;;;;;0.00;0.00;;;;;;;13.10;84.98;100799.59;5070643;28;20175;-75
2022/06/15 06:01:22;;;;;;;0.00;0.00;;;;;;;13.20;84.98;100793.03;5071336;28;20198;-73
2022/06/15 06:03:47;;;;;;;0.00;0.00;;;;;;;13.30;85.03;100795.47;5071260;28;20282;-73
2022/06/15 06:06:13;;;;;;;0.07;0.07;;;;;;;13.39;84.17;100793.53;5071193;28;20174;-73
2022/06/15 06:08:39;;;;;;;0.13;0.13;;;;;;;13.39;83.98;100790.81;5070090;28;20174;-75
2022/06/15 06:11:04;;;;;;;0.00;0.00;;;;;;;13.46;82.36;100787.59;5071195;28;20194;-73
2022/06/15 06:13:29;;;;;;;0.00;0.00;;;;;;;13.57;81.89;100796.28;5071158;28;20181;-74
2022/06/15 06:15:56;;;;;;;0.10;0.10;;;;;;;13.68;81.37;100792.91;5070948;28;20692;-73
2022/06/15 06:18:22;;;;;;;0.00;0.00;;;;;;;13.73;79.36;100793.88;5070301;28;20209;-73
2022/06/15 06:20:48;;;;;;;0.00;0.00;;;;;;;13.75;79.54;100797.13;5070988;28;20167;-74
2022/06/15 06:23:14;;;;;;;0.00;0.00;;;;;;;13.77;79.64;100792.13;5070986;28;20206;-74
2022/06/15 06:25:41;;;;;;;0.03;0.03;;;;;;;13.88;79.92;100798.88;5071096;28;20265;-73
2022/06/15 06:28:18;;;;;;;0.17;0.17;;;;;;;13.96;79.55;100792.56;5070179;28;20167;-73
2022/06/15 06:30:43;;;;;;;0.00;0.00;;;;;;;14.13;79.53;100797.22;5070871;28;20175;-72
2022/06/15 06:33:08;;;;;;;0.00;0.00;;;;;;;14.21;79.83;100788.97;5070740;28;20228;-73
2022/06/15 06:35:34;;;;;;;0.10;0.10;;;;;;;14.20;78.80;100790.09;5071026;28;20240;-73
2022/06/15 06:37:59;;;;;;;0.00;0.00;;;;;;;14.37;78.47;100793.94;5069940;28;20258;-73
2022/06/15 06:40:25;;;;;;;0.00;0.00;;;;;;;14.39;77.44;100791.66;5070671;28;20183;-72
2022/06/15 06:42:50;;;;;;;0.10;0.10;;;;;;;14.59;77.61;100790.97;5070636;28;20182;-73
2022/06/15 06:45:16;;;;;;;1.13;1.13;;;;;;;14.69;77.74;100792.53;5070584;28;20185;-73
2022/06/15 06:47:42;;;;;;;0.17;0.17;;;;;;;14.73;76.07;100799.81;5069764;28;20600;-73
2022/06/15 06:50:08;;;;;;;0.00;0.00;;;;;;;14.73;76.46;100793.50;5070658;28;20175;-73
2022/06/15 06:52:34;;;;;;;0.00;0.00;;;;;;;14.91;77.10;100808.00;5070503;28;20244;-73
2022/06/15 06:54:59;;;;;;;0.20;0.20;;;;;;;14.91;76.26;100797.00;5070525;28;20225;-73
2022/06/15 06:57:24;;;;;;;0.00;0.00;;;;;;;15.07;76.94;100792.53;5070020;28;20712;-74
2022/06/15 06:59:50;;;;;;;0.50;0.50;;;;;;;14.99;75.93;100796.13;5070275;28;20253;-72
2022/06/15 07:02:15;;;;;;;0.00;0.00;;;;;;;15.05;75.67;100795.63;5070426;28;20556;-74
2022/06/15 07:04:40;;;;;;;0.20;0.20;;;;;;;15.25;76.40;100794.03;5070676;28;20179;-72
2022/06/15 07:07:05;;;;;;;0.03;0.00;;;;;;;15.37;75.76;100796.06;5069245;28;20170;-73
2022/06/15 07:09:31;;;;;;;0.00;0.00;;;;;;;15.50;75.75;100799.69;5070043;28;20206;-73
2022/06/15 07:11:56;;;;;;;0.00;0.00;;;;;;;15.55;73.94;100796.72;5070314;28;20581;-72
2022/06/15 07:14:21;;;;;;;0.33;0.30;;;;;;;15.64;74.14;100803.00;5070339;28;20178;-73
2022/06/15 07:16:47;;;;;;;0.00;0.00;;;;;;;15.70;74.19;100787.88;5069884;28;20210;-72
2022/06/15 07:19:12;;;;;;;0.10;0.10;;;;;;;15.98;73.90;100799.13;5069703;28;20225;-72
2022/06/15 07:21:38;;;;;;;0.27;0.10;;;;;;;16.04;73.02;100798.56;5070248;28;20237;-74
2022/06/15 07:24:04;;;;;;;0.20;0.20;;;;;;;16.09;72.45;100800.31;5070344;28;20174;-73
2022/06/15 07:26:34;;;;;;;0.00;0.00;;;;;;;16.21;73.16;100791.28;5070059;28;20193;-73
2022/06/15 07:29:00;;;;;;;0.00;0.00;;;;;;;16.46;72.50;100792.94;5069995;28;20186;-73
2022/06/15 07:31:34;;;;;;;0.00;0.00;;;;;;;16.52;72.20;100791.56;5070060;28;20630;-75
2022/06/15 07:34:01;;;;;;;0.00;0.00;;;;;;;16.48;71.40;100792.59;5070123;28;20175;-73
2022/06/15 07:36:26;;;;;;;0.03;0.03;;;;;;;16.73;72.48;100782.41;5069950;28;20210;-73
2022/06/15 07:38:54;;;;;;;0.70;0.70;;;;;;;16.89;71.43;100783.34;5069656;28;20312;-73
2022/06/15 07:41:21;;;;;;;0.00;0.00;;;;;;;16.80;71.06;100788.19;5070382;28;20235;-73
2022/06/15 07:43:47;;;;;;;0.10;0.10;;;;;;;16.97;70.73;100789.91;5069958;28;20171;-73
2022/06/15 07:46:13;;;;;;;0.30;0.30;;;;;;;16.99;71.21;100785.63;5072051;28;20206;-74
2022/06/15 07:51:25;;;;;;;0.30;0.30;;;;;;;17.24;70.42;100778.94;5074211;28;20903;-73
2022/06/15 07:53:50;;;;;;;0.67;0.60;;;;;;;17.20;67.53;100788.25;5073987;28;20177;-73
2022/06/15 07:56:16;;;;;;;0.00;0.00;;;;;;;17.21;69.09;100774.13;5073658;28;20622;-73
2022/06/15 07:58:41;;;;;;;0.00;0.00;;;;;;;17.48;70.26;100786.34;5073481;28;20171;-73
2022/06/15 08:01:06;;;;;;;0.00;0.00;;;;;;;17.27;69.82;100779.38;5074049;28;20178;-74
2022/06/15 08:03:32;;;;;;;0.83;0.80;;;;;;;17.35;66.85;100775.66;5073553;28;20669;-74
2022/06/15 08:05:58;;;;;;;0.30;0.30;;;;;;;17.32;66.97;100771.66;5073668;28;20217;-73
2022/06/15 08:08:25;;;;;;;21.30;0.57;;;;;;;17.53;68.46;100774.25;5072601;28;20541;-75
2022/06/15 08:10:50;;;;;;;0.37;0.37;;;;;;;17.73;68.81;100778.00;5073470;28;20183;-72
2022/06/15 08:13:17;;;;;;;0.20;0.20;;;;;;;17.86;68.76;100774.03;5073717;28;20163;-72
2022/06/15 08:15:45;;;;;;;0.00;0.00;;;;;;;17.98;68.00;100774.00;5073246;28;20304;-73
2022/06/15 08:18:15;;;;;;;0.60;0.60;;;;;;;18.12;65.13;100779.09;5072574;28;20179;-73
2022/06/15 08:20:52;;;;;;;0.00;0.00;;;;;;;18.06;66.40;100774.97;5073361;28;20174;-73
2022/06/15 08:23:22;;;;;;;0.00;0.00;;;;;;;18.25;65.84;100771.53;5073346;28;20430;-72
2022/06/15 08:25:51;;;;;;;0.00;0.00;;;;;;;18.39;65.30;100774.69;5072315;28;20609;-72
2022/06/15 08:28:21;;;;;;;0.27;0.23;;;;;;;18.57;64.07;100772.38;5072564;28;20202;-72
2022/06/15 08:30:48;;;;;;;0.10;0.10;;;;;;;18.42;64.85;100762.91;5073195;28;20567;-73
2022/06/15 08:33:14;;;;;;;0.97;0.93;;;;;;;18.46;63.83;100763.78;5073104;28;20202;-73
2022/06/15 08:35:39;;;;;;;0.67;0.13;;;;;;;18.63;63.98;100762.63;5072918;28;20241;-72
2022/06/15 08:38:08;;;;;;;0.00;0.00;;;;;;;18.68;64.30;100760.44;5072286;28;20179;-73
2022/06/15 08:40:50;;;;;;;0.00;0.00;;;;;;;18.74;64.37;100752.66;5073035;28;20178;-72
2022/06/15 08:43:37;;;;;;;0.37;0.37;;;;;;;18.88;63.57;100755.75;5072939;28;20185;-73
2022/06/15 08:46:24;;;;;;;0.10;0.10;;;;;;;19.05;62.61;100756.53;5072847;28;20206;-72
2022/06/15 08:49:06;;;;;;;0.00;0.00;;;;;;;19.18;63.13;100760.78;5072296;28;20708;-73
2022/06/15 08:51:38;;;;;;;0.60;0.43;;;;;;;19.28;63.25;100757.44;5072855;28;20270;-73
2022/06/15 08:54:17;;;;;;;0.10;0.10;;;;;;;19.51;61.33;100758.31;5072740;28;20653;-73
2022/06/15 08:56:51;;;;;;;0.23;0.23;;;;;;;19.64;61.83;100758.22;5071170;28;20246;-73
2022/06/15 08:59:40;;;;;;;0.17;0.17;;;;;;;19.38;62.13;100748.53;5072262;28;20184;-73
2022/06/15 09:02:08;;;;;;;0.40;0.40;;;;;;;19.64;61.55;100747.94;5072781;28;20186;-74
2022/06/15 09:04:46;;;;;;;0.50;0.50;;;;;;;19.65;60.98;100746.75;5072461;28;20212;-73
2022/06/15 09:07:48;;;;;;;0.10;0.10;;;;;;;19.37;61.48;100746.94;5071919;28;20639;-74
2022/06/15 09:10:13;;;;;;;0.00;0.00;;;;;;;19.60;62.13;100741.53;5071156;28;20581;-73
2022/06/15 09:12:53;;;;;;;1.63;1.60;;;;;;;19.83;61.01;100745.16;5072286;28;20179;-73
2022/06/15 09:15:42;;;;;;;1.50;0.37;;;;;;;19.71;60.47;100742.53;5072336;28;20208;-72
2022/06/15 09:18:17;;;;;;;0.60;0.60;;;;;;;20.12;60.66;100752.06;5070342;28;20646;-73
2022/06/15 09:20:57;;;;;;;0.30;0.30;;;;;;;20.41;60.10;100750.63;5072270;28;20182;-74
2022/06/15 09:23:38;;;;;;;0.00;0.00;;;;;;;20.33;57.33;100748.03;5072191;28;20179;-73
2022/06/15 09:26:13;;;;;;;0.00;0.00;;;;;;;20.38;57.26;100744.94;5072186;28;20189;-72
2022/06/15 09:28:55;;;;;;;0.00;0.00;;;;;;;20.36;56.64;100750.06;5071213;28;20638;-73
2022/06/15 09:31:35;;;;;;;0.00;0.00;;;;;;;20.57;55.73;100755.22;5072135;28;20178;-74
2022/06/15 09:34:04;;;;;;;0.30;0.30;;;;;;;20.52;55.21;100753.53;5071935;28;20227;-74
2022/06/15 09:36:35;;;;;;;0.00;0.00;;;;;;;20.61;54.83;100743.00;5071846;28;20213;-74
2022/06/15 09:39:02;;;;;;;0.07;0.07;;;;;;;20.54;54.04;100748.41;5071722;28;20175;-73
2022/06/15 09:41:27;;;;;;;0.20;0.20;;;;;;;20.72;55.13;100749.53;5071837;28;20481;-73
2022/06/15 09:44:37;;;;;;;0.40;0.33;;;;;;;20.56;53.54;100745.28;5071674;28;20269;-73
2022/06/15 09:47:19;;;;;;;0.33;0.33;;;;;;;21.03;54.84;100742.84;5016257;28;20205;-74
2022/06/15 09:49:59;;;;;;;4.80;1.00;;;;;;;21.25;53.62;100737.59;5071225;28;20245;-73
2022/06/15 09:52:56;;;;;;;0.10;0.10;;;;;;;21.34;54.00;100733.38;5071549;28;20180;-74
2022/06/15 09:56:03;;;;;;;0.00;0.00;;;;;;;20.72;53.81;100732.88;5017262;28;20262;-72
2022/06/15 09:58:33;;;;;;;0.30;0.30;;;;;;;20.88;53.45;100731.91;5008619;28;20193;-73
2022/06/15 10:00:58;;;;;;;0.00;0.00;;;;;;;20.91;52.12;100736.72;5009118;28;20243;-73
2022/06/15 10:03:31;;;;;;;0.00;0.00;;;;;;;21.22;52.45;100738.34;5041057;28;20189;-73
2022/06/15 10:06:21;;;;;;;0.00;0.00;;;;;;;21.43;51.53;100735.09;5071388;28;20625;-74
2022/06/15 10:08:47;;;;;;;0.00;0.00;;;;;;;21.59;51.70;100741.25;5101779;28;20274;-73
2022/06/15 10:11:17;;;;;;;2.53;0.10;;;;;;;21.66;49.99;100738.53;5071328;28;20184;-74
2022/06/15 10:13:44;;;;;;;0.00;0.00;;;;;;;21.66;50.83;100736.56;5071437;28;20649;-74
2022/06/15 10:16:27;;;;;;;0.00;0.00;;;;;;;21.77;50.82;100733.09;5071169;28;20741;-74
2022/06/15 10:18:57;;;;;;;1.83;1.83;;;;;;;21.90;51.50;100737.22;5070960;28;20207;-73
2022/06/15 10:21:34;;;;;;;0.00;0.00;;;;;;;21.55;51.29;100737.59;5071034;28;20202;-73
2022/06/15 10:24:24;;;;;;;0.83;0.80;;;;;;;21.57;51.42;100729.69;5071127;28;20196;-74
2022/06/15 10:27:28;;;;;;;0.00;0.00;;;;;;;21.78;50.97;100724.38;5070697;28;20514;-73
2022/06/15 10:30:18;;;;;;;1.43;1.40;;;;;;;21.85;50.45;100724.47;5070665;28;20306;-73
2022/06/15 10:33:13;;;;;;;0.00;0.00;;;;;;;22.06;50.56;100717.53;5070991;28;20198;-75
2022/06/15 10:35:39;;;;;;;0.20;0.20;;;;;;;21.88;50.02;100729.25;5070694;28;20216;-74
2022/06/15 10:38:11;;;;;;;0.00;0.00;;;;;;;21.95;50.14;100720.19;5069988;28;20549;-74
2022/06/15 10:40:40;;;;;;;0.00;0.00;;;;;;;22.31;51.38;100713.00;5070960;28;20185;-74
2022/06/15 10:43:15;;;;;;;0.00;0.00;;;;;;;22.64;50.07;100722.41;5070671;28;20168;-73
2022/06/15 10:45:54;;;;;;;0.00;0.00;;;;;;;22.76;48.86;100722.91;5070782;28;20177;-74
2022/06/15 10:48:41;;;;;;;0.00;0.00;;;;;;;22.47;48.99;100716.31;5069778;28;20561;-74
2022/06/15 10:51:33;;;;;;;0.57;0.37;;;;;;;22.21;47.98;100719.28;5070619;28;20174;-73
2022/06/15 10:54:32;;;;;;;0.07;0.07;;;;;;;22.41;48.84;100714.25;5070492;28;20169;-74
2022/06/15 11:03:15;;;;;;;0.10;0.10;;;;;;;22.69;49.36;100705.31;5070836;28;20763;-73
2022/06/15 11:05:43;;;;;;;0.00;0.00;;;;;;;22.69;47.01;100697.75;5070262;28;20220;-74
2022/06/15 11:08:19;;;;;;;0.00;0.00;;;;;;;22.90;46.88;100688.78;5069329;28;20173;-74
2022/06/15 11:10:51;;;;;;;0.00;0.00;;;;;;;22.98;47.53;100690.41;5070378;28;20489;-74
2022/06/15 11:13:28;;;;;;;0.03;0.03;;;;;;;23.37;47.56;100682.25;5070551;28;20186;-74
2022/06/15 11:19:09;;;;;;;0.00;0.00;;;;;;;23.07;48.73;100684.50;5027266;28;20183;-73
2022/06/15 11:21:59;;;;;;;0.20;0.20;;;;;;;23.61;47.54;100683.56;5027075;28;20179;-73
2022/06/15 11:24:36;;;;;;;0.00;0.00;;;;;;;23.29;46.22;100674.22;5057545;28;20194;-74
2022/06/15 11:27:13;;;;;;;0.00;0.00;;;;;;;23.47;46.60;100679.91;5069972;28;20207;-73
2022/06/15 11:29:59;;;;;;;0.00;0.00;;;;;;;23.85;45.87;100678.41;5069805;28;20228;-74
2022/06/15 11:32:37;;;;;;;0.20;0.20;;;;;;;23.54;44.79;100668.75;5070153;28;20183;-74
2022/06/15 11:35:21;;;;;;;0.87;0.63;;;;;;;23.52;45.23;100673.94;5069979;28;20593;-74
2022/06/15 11:38:14;;;;;;;0.97;0.90;;;;;;;22.96;45.40;100676.06;5069816;28;20526;-73
2022/06/15 11:40:49;;;;;;;0.07;0.07;;;;;;;23.40;44.50;100673.09;5070124;28;20178;-74
2022/06/15 11:43:20;;;;;;;0.00;0.00;;;;;;;23.25;44.20;100670.63;5070103;28;20177;-73
2022/06/15 11:46:07;;;;;;;0.10;0.10;;;;;;;23.66;44.17;100668.41;5070016;28;20384;-73
2022/06/15 11:48:56;;;;;;;0.87;0.53;;;;;;;23.55;44.91;100664.75;5069188;28;20665;-73
2022/06/15 11:51:27;;;;;;;0.00;0.00;;;;;;;23.91;43.79;100655.31;5070014;28;20169;-73
2022/06/15 11:53:54;;;;;;;0.00;0.00;;;;;;;23.88;42.86;100655.31;5069895;28;20178;-74
2022/06/15 11:56:21;;;;;;;0.13;0.13;;;;;;;24.24;44.10;100653.31;5069860;28;20202;-73
2022/06/15 11:59:21;;;;;;;0.00;0.00;;;;;;;24.32;43.27;100646.59;5069347;28;20236;-74